sensor_id;sensor_type;location;lat;lon;timestamp;P1;durP1;ratioP1;P2;durP2;ratioP2
20314;SDS011;10315;50.958;13.080;2022-10-17T00:04:17;3.30;;;2.73;;
20314;SDS011;10315;50.958;13.080;2022-10-17T00:14:18;2.60;;;2.30;;
20314;SDS011;10315;50.958;13.080;2022-10-17T00:24:21;3.90;;;2.50;;
20314;SDS011;10315;50.958;13.080;2022-10-17T00:34:23;3.10;;;1.90;;
20314;SDS011;10315;50.958;13.080;2022-10-17T00:55:07;2.25;;;1.75;;
20314;SDS011;10315;50.958;13.080;2022-10-17T01:05:15;2.67;;;1.50;;
20314;SDS011;10315;50.958;13.080;2022-10-17T01:15:20;2.17;;;1.50;;
20314;SDS011;10315;50.958;13.080;2022-10-17T01:25:38;1.55;;;1.25;;
20314;SDS011;10315;50.958;13.080;2022-10-17T01:35:54;1.95;;;1.00;;
20314;SDS011;10315;50.958;13.080;2022-10-17T01:46:00;2.25;;;1.13;;
20314;SDS011;10315;50.958;13.080;2022-10-17T01:56:09;3.63;;;1.33;;
20314;SDS011;10315;50.958;13.080;2022-10-17T02:06:14;1.80;;;1.50;;
20314;SDS011;10315;50.958;13.080;2022-10-17T02:16:19;2.33;;;1.20;;
20314;SDS011;10315;50.958;13.080;2022-10-17T02:26:30;1.45;;;1.10;;
20314;SDS011;10315;50.958;13.080;2022-10-17T02:36:37;1.83;;;1.63;;
20314;SDS011;10315;50.958;13.080;2022-10-17T02:46:43;2.35;;;1.30;;
20314;SDS011;10315;50.958;13.080;2022-10-17T02:56:52;2.05;;;1.65;;
20314;SDS011;10315;50.958;13.080;2022-10-17T03:06:58;3.88;;;1.50;;
20314;SDS011;10315;50.958;13.080;2022-10-17T03:17:01;2.78;;;1.27;;
20314;SDS011;10315;50.958;13.080;2022-10-17T03:27:02;3.05;;;1.70;;
20314;SDS011;10315;50.958;13.080;2022-10-17T03:37:06;2.20;;;1.90;;
20314;SDS011;10315;50.958;13.080;2022-10-17T03:47:07;1.92;;;1.70;;
20314;SDS011;10315;50.958;13.080;2022-10-17T03:57:10;3.55;;;1.88;;
20314;SDS011;10315;50.958;13.080;2022-10-17T04:07:12;1.52;;;1.42;;
20314;SDS011;10315;50.958;13.080;2022-10-17T04:17:15;2.90;;;1.58;;
20314;SDS011;10315;50.958;13.080;2022-10-17T04:27:17;3.63;;;1.50;;
20314;SDS011;10315;50.958;13.080;2022-10-17T04:37:20;2.53;;;1.50;;
20314;SDS011;10315;50.958;13.080;2022-10-17T04:47:22;2.92;;;1.30;;
20314;SDS011;10315;50.958;13.080;2022-10-17T04:57:25;5.13;;;1.33;;
20314;SDS011;10315;50.958;13.080;2022-10-17T05:07:26;2.75;;;1.63;;
20314;SDS011;10315;50.958;13.080;2022-10-17T05:17:29;2.90;;;1.70;;
20314;SDS011;10315;50.958;13.080;2022-10-17T05:27:31;1.63;;;1.52;;
20314;SDS011;10315;50.958;13.080;2022-10-17T05:37:35;3.38;;;1.48;;
20314;SDS011;10315;50.958;13.080;2022-10-17T05:47:36;3.78;;;2.15;;
20314;SDS011;10315;50.958;13.080;2022-10-17T05:57:39;5.40;;;1.83;;
20314;SDS011;10315;50.958;13.080;2022-10-17T06:07:41;3.38;;;2.08;;
20314;SDS011;10315;50.958;13.080;2022-10-17T06:17:45;4.20;;;2.10;;
20314;SDS011;10315;50.958;13.080;2022-10-17T06:27:46;4.05;;;2.10;;
20314;SDS011;10315;50.958;13.080;2022-10-17T06:37:49;4.22;;;2.00;;
20314;SDS011;10315;50.958;13.080;2022-10-17T06:47:51;2.92;;;2.38;;
20314;SDS011;10315;50.958;13.080;2022-10-17T06:57:54;7.20;;;1.73;;
20314;SDS011;10315;50.958;13.080;2022-10-17T07:07:56;3.10;;;1.75;;
20314;SDS011;10315;50.958;13.080;2022-10-17T07:17:59;1.52;;;1.38;;
20314;SDS011;10315;50.958;13.080;2022-10-17T07:28:01;2.75;;;1.38;;
20314;SDS011;10315;50.958;13.080;2022-10-17T07:38:04;2.30;;;1.58;;
20314;SDS011;10315;50.958;13.080;2022-10-17T07:48:06;4.18;;;1.48;;
20314;SDS011;10315;50.958;13.080;2022-10-17T07:58:09;1.80;;;1.40;;
20314;SDS011;10315;50.958;13.080;2022-10-17T08:08:11;2.40;;;1.40;;
20314;SDS011;10315;50.958;13.080;2022-10-17T08:18:14;1.55;;;1.10;;
20314;SDS011;10315;50.958;13.080;2022-10-17T08:28:16;2.53;;;1.30;;
20314;SDS011;10315;50.958;13.080;2022-10-17T08:38:19;2.78;;;1.45;;
20314;SDS011;10315;50.958;13.080;2022-10-17T08:48:22;2.10;;;1.50;;
20314;SDS011;10315;50.958;13.080;2022-10-17T08:58:28;1.48;;;1.23;;
20314;SDS011;10315;50.958;13.080;2022-10-17T09:08:35;2.08;;;1.40;;
20314;SDS011;10315;50.958;13.080;2022-10-17T09:18:45;1.88;;;1.50;;
20314;SDS011;10315;50.958;13.080;2022-10-17T09:28:54;2.03;;;1.35;;
20314;SDS011;10315;50.958;13.080;2022-10-17T09:39:01;1.98;;;1.70;;
20314;SDS011;10315;50.958;13.080;2022-10-17T09:49:05;3.67;;;1.67;;
20314;SDS011;10315;50.958;13.080;2022-10-17T09:59:13;3.00;;;1.40;;
20314;SDS011;10315;50.958;13.080;2022-10-17T10:09:35;3.78;;;1.60;;
20314;SDS011;10315;50.958;13.080;2022-10-17T10:19:48;5.03;;;1.58;;
20314;SDS011;10315;50.958;13.080;2022-10-17T10:29:50;2.05;;;1.35;;
20314;SDS011;10315;50.958;13.080;2022-10-17T10:39:54;3.65;;;1.50;;
20314;SDS011;10315;50.958;13.080;2022-10-17T11:00:28;2.45;;;1.23;;
20314;SDS011;10315;50.958;13.080;2022-10-17T11:10:34;2.03;;;1.20;;
20314;SDS011;10315;50.958;13.080;2022-10-17T11:20:42;2.08;;;1.15;;
20314;SDS011;10315;50.958;13.080;2022-10-17T11:30:50;2.03;;;1.45;;
20314;SDS011;10315;50.958;13.080;2022-10-17T11:41:01;4.00;;;1.70;;
20314;SDS011;10315;50.958;13.080;2022-10-17T11:51:07;1.70;;;1.58;;
20314;SDS011;10315;50.958;13.080;2022-10-17T12:01:14;1.70;;;1.52;;
20314;SDS011;10315;50.958;13.080;2022-10-17T12:11:33;4.10;;;1.10;;
20314;SDS011;10315;50.958;13.080;2022-10-17T12:21:56;1.10;;;1.00;;
20314;SDS011;10315;50.958;13.080;2022-10-17T12:32:08;2.40;;;1.15;;
20314;SDS011;10315;50.958;13.080;2022-10-17T12:52:53;1.60;;;1.02;;
20314;SDS011;10315;50.958;13.080;2022-10-17T13:03:05;4.03;;;1.30;;
20314;SDS011;10315;50.958;13.080;2022-10-17T13:13:13;1.70;;;1.60;;
20314;SDS011;10315;50.958;13.080;2022-10-17T13:23:22;1.85;;;1.42;;
20314;SDS011;10315;50.958;13.080;2022-10-17T13:33:27;2.63;;;2.03;;
20314;SDS011;10315;50.958;13.080;2022-10-17T13:43:34;3.75;;;1.90;;
20314;SDS011;10315;50.958;13.080;2022-10-17T13:53:36;2.63;;;1.83;;
20314;SDS011;10315;50.958;13.080;2022-10-17T14:03:43;8.85;;;2.40;;
20314;SDS011;10315;50.958;13.080;2022-10-17T14:13:47;4.43;;;2.35;;
20314;SDS011;10315;50.958;13.080;2022-10-17T14:23:52;3.20;;;2.70;;
20314;SDS011;10315;50.958;13.080;2022-10-17T14:34:15;3.55;;;3.03;;
20314;SDS011;10315;50.958;13.080;2022-10-17T14:44:24;8.77;;;4.50;;
20314;SDS011;10315;50.958;13.080;2022-10-17T14:54:28;11.15;;;5.68;;
20314;SDS011;10315;50.958;13.080;2022-10-17T15:04:33;11.10;;;5.93;;
20314;SDS011;10315;50.958;13.080;2022-10-17T15:14:34;18.92;;;9.45;;
20314;SDS011;10315;50.958;13.080;2022-10-17T15:24:37;20.73;;;11.75;;
20314;SDS011;10315;50.958;13.080;2022-10-17T15:34:39;19.85;;;10.90;;
20314;SDS011;10315;50.958;13.080;2022-10-17T15:44:42;21.58;;;12.63;;
20314;SDS011;10315;50.958;13.080;2022-10-17T15:54:48;23.00;;;12.48;;
20314;SDS011;10315;50.958;13.080;2022-10-17T16:04:51;19.67;;;10.88;;
20314;SDS011;10315;50.958;13.080;2022-10-17T16:14:53;22.05;;;11.07;;
20314;SDS011;10315;50.958;13.080;2022-10-17T16:24:57;21.63;;;11.88;;
20314;SDS011;10315;50.958;13.080;2022-10-17T16:35:06;26.20;;;12.00;;
20314;SDS011;10315;50.958;13.080;2022-10-17T16:45:13;32.45;;;16.83;;
20314;SDS011;10315;50.958;13.080;2022-10-17T16:55:17;53.65;;;27.10;;
20314;SDS011;10315;50.958;13.080;2022-10-17T17:05:20;72.07;;;44.33;;
20314;SDS011;10315;50.958;13.080;2022-10-17T17:15:22;30.70;;;17.10;;
20314;SDS011;10315;50.958;13.080;2022-10-17T17:25:25;64.97;;;45.40;;
20314;SDS011;10315;50.958;13.080;2022-10-17T17:35:27;87.55;;;46.03;;
20314;SDS011;10315;50.958;13.080;2022-10-17T17:45:31;31.25;;;17.13;;
20314;SDS011;10315;50.958;13.080;2022-10-17T17:55:34;29.55;;;15.90;;
20314;SDS011;10315;50.958;13.080;2022-10-17T18:05:39;26.77;;;16.40;;
20314;SDS011;10315;50.958;13.080;2022-10-17T18:15:41;30.63;;;16.58;;
20314;SDS011;10315;50.958;13.080;2022-10-17T18:25:52;33.05;;;16.77;;
20314;SDS011;10315;50.958;13.080;2022-10-17T18:35:54;47.75;;;26.88;;
20314;SDS011;10315;50.958;13.080;2022-10-17T18:46:01;36.28;;;18.83;;
20314;SDS011;10315;50.958;13.080;2022-10-17T18:56:04;33.50;;;18.08;;
20314;SDS011;10315;50.958;13.080;2022-10-17T19:06:07;38.35;;;20.35;;
20314;SDS011;10315;50.958;13.080;2022-10-17T19:16:11;37.20;;;19.58;;
20314;SDS011;10315;50.958;13.080;2022-10-17T19:26:16;44.03;;;20.17;;
20314;SDS011;10315;50.958;13.080;2022-10-17T19:36:18;39.25;;;20.02;;
20314;SDS011;10315;50.958;13.080;2022-10-17T19:46:23;37.78;;;19.10;;
20314;SDS011;10315;50.958;13.080;2022-10-17T19:56:26;34.78;;;18.48;;
20314;SDS011;10315;50.958;13.080;2022-10-17T20:06:30;36.25;;;18.00;;
20314;SDS011;10315;50.958;13.080;2022-10-17T20:16:33;37.63;;;19.10;;
20314;SDS011;10315;50.958;13.080;2022-10-17T20:26:37;32.83;;;17.40;;
20314;SDS011;10315;50.958;13.080;2022-10-17T20:36:39;28.58;;;16.95;;
20314;SDS011;10315;50.958;13.080;2022-10-17T20:46:42;29.08;;;15.50;;
20314;SDS011;10315;50.958;13.080;2022-10-17T20:56:44;30.67;;;16.08;;
20314;SDS011;10315;50.958;13.080;2022-10-17T21:06:47;30.15;;;15.85;;
20314;SDS011;10315;50.958;13.080;2022-10-17T21:16:51;27.13;;;15.23;;
20314;SDS011;10315;50.958;13.080;2022-10-17T21:26:54;29.73;;;15.68;;
20314;SDS011;10315;50.958;13.080;2022-10-17T21:36:56;33.92;;;15.20;;
20314;SDS011;10315;50.958;13.080;2022-10-17T21:46:59;30.00;;;15.07;;
20314;SDS011;10315;50.958;13.080;2022-10-17T21:57:01;30.40;;;15.38;;
20314;SDS011;10315;50.958;13.080;2022-10-17T22:07:04;27.17;;;14.97;;
20314;SDS011;10315;50.958;13.080;2022-10-17T22:17:05;27.27;;;15.35;;
20314;SDS011;10315;50.958;13.080;2022-10-17T22:27:08;24.03;;;13.03;;
20314;SDS011;10315;50.958;13.080;2022-10-17T22:37:10;27.87;;;14.17;;
20314;SDS011;10315;50.958;13.080;2022-10-17T22:47:13;24.37;;;13.17;;
20314;SDS011;10315;50.958;13.080;2022-10-17T22:57:15;23.63;;;12.67;;
20314;SDS011;10315;50.958;13.080;2022-10-17T23:07:18;28.47;;;14.23;;
20314;SDS011;10315;50.958;13.080;2022-10-17T23:17:20;26.53;;;13.30;;
20314;SDS011;10315;50.958;13.080;2022-10-17T23:27:23;25.53;;;14.33;;
20314;SDS011;10315;50.958;13.080;2022-10-17T23:37:24;21.90;;;12.50;;
20314;SDS011;10315;50.958;13.080;2022-10-17T23:47:27;30.10;;;14.87;;
20314;SDS011;10315;50.958;13.080;2022-10-17T23:57:29;31.70;;;12.87;;
